createdAt,value
2022-12-05T00:01:15.313Z,64.77
2022-12-05T00:03:43.125Z,65.47
2022-12-05T00:06:10.799Z,62.30
2022-12-05T00:08:40.313Z,63.70
2022-12-05T00:11:12.145Z,60.27
2022-12-05T00:13:41.104Z,64.40
2022-12-05T00:16:09.889Z,63.80
2022-12-05T00:18:37.981Z,63.63
2022-12-05T00:21:06.103Z,66.10
2022-12-05T00:23:34.812Z,65.60
2022-12-05T00:26:05.125Z,65.83
2022-12-05T00:28:33.192Z,65.70
2022-12-05T00:31:02.986Z,69.57
2022-12-05T00:33:30.980Z,67.63
2022-12-05T00:36:02.216Z,65.23
2022-12-05T00:38:30.013Z,65.57
2022-12-05T00:40:57.757Z,66.20
2022-12-05T00:43:26.871Z,69.83
2022-12-05T00:45:54.838Z,63.10
2022-12-05T00:48:25.178Z,70.30
2022-12-05T00:51:00.638Z,66.17
2022-12-05T00:53:28.318Z,65.53
2022-12-05T00:55:55.941Z,69.10
2022-12-05T00:58:23.634Z,70.53
2022-12-05T01:00:52.871Z,67.83
2022-12-05T01:03:20.710Z,69.10
2022-12-05T01:05:48.468Z,69.60
2022-12-05T01:08:16.383Z,68.17
2022-12-05T01:10:52.907Z,67.10
2022-12-05T01:13:21.063Z,67.10
2022-12-05T01:15:48.936Z,67.13
2022-12-05T01:18:18.877Z,67.27
2022-12-05T01:20:46.857Z,72.50
2022-12-05T01:23:15.134Z,74.97
2022-12-05T01:25:43.193Z,71.37
2022-12-05T01:28:11.340Z,69.57
2022-12-05T01:30:39.559Z,71.50
2022-12-05T01:33:07.367Z,68.90
2022-12-05T01:35:37.846Z,72.57
2022-12-05T01:38:06.119Z,68.27
2022-12-05T01:40:36.241Z,70.40
2022-12-05T01:43:04.209Z,70.90
2022-12-05T01:45:33.290Z,71.63
2022-12-05T01:48:03.887Z,69.47
2022-12-05T01:50:31.924Z,68.30
2022-12-05T01:53:00.989Z,71.13
2022-12-05T01:55:28.965Z,71.57
2022-12-05T01:57:58.102Z,70.17
2022-12-05T02:00:26.370Z,70.80
2022-12-05T02:02:55.362Z,70.47
2022-12-05T02:05:24.494Z,68.60
2022-12-05T02:07:53.150Z,68.33
2022-12-05T02:10:23.210Z,72.37
2022-12-05T02:12:52.945Z,72.43
2022-12-05T02:15:29.623Z,70.83
2022-12-05T02:18:05.772Z,71.67
2022-12-05T02:20:38.013Z,70.73
2022-12-05T02:23:27.205Z,73.57
2022-12-05T02:26:08.131Z,71.87
2022-12-05T02:28:47.543Z,74.40
2022-12-05T02:31:18.228Z,73.57
2022-12-05T02:33:48.759Z,73.90
2022-12-05T02:36:18.930Z,74.40
2022-12-05T02:38:51.297Z,74.47
2022-12-05T02:41:22.894Z,68.77
2022-12-05T02:43:54.337Z,71.47
2022-12-05T02:46:24.285Z,70.57
2022-12-05T02:48:54.514Z,68.77
2022-12-05T02:51:23.498Z,71.90
2022-12-05T02:53:51.700Z,68.40
2022-12-05T02:56:20.352Z,70.53
2022-12-05T02:58:50.882Z,69.33
2022-12-05T03:01:19.511Z,70.90
2022-12-05T03:03:49.130Z,70.57
2022-12-05T03:06:19.021Z,66.73
2022-12-05T03:08:49.326Z,69.33
2022-12-05T03:11:17.339Z,63.53
2022-12-05T03:13:46.277Z,64.10
2022-12-05T03:16:16.357Z,63.40
2022-12-05T03:18:46.948Z,63.40
2022-12-05T03:21:19.896Z,63.80
2022-12-05T03:23:50.469Z,61.77
2022-12-05T03:26:20.785Z,60.80
2022-12-05T03:28:55.592Z,61.27
2022-12-05T03:31:27.401Z,61.50
2022-12-05T03:33:58.039Z,59.27
2022-12-05T03:36:30.243Z,57.33
2022-12-05T03:38:58.938Z,59.20
2022-12-05T03:41:32.357Z,59.70
2022-12-05T03:44:02.398Z,59.70
2022-12-05T03:46:34.786Z,60.83
2022-12-05T03:49:05.171Z,61.13
2022-12-05T03:51:36.465Z,59.90
2022-12-05T03:54:06.543Z,61.10
2022-12-05T03:56:36.317Z,61.47
2022-12-05T03:59:19.011Z,60.77
2022-12-05T04:01:48.195Z,57.77
2022-12-05T04:04:18.174Z,59.83
2022-12-05T04:06:48.365Z,58.33
2022-12-05T04:09:18.256Z,60.37
2022-12-05T04:11:48.056Z,60.90
2022-12-05T04:14:18.760Z,59.77
2022-12-05T04:17:06.407Z,60.70
2022-12-05T04:19:51.809Z,62.23
2022-12-05T04:22:21.231Z,58.53
2022-12-05T04:25:07.238Z,59.20
2022-12-05T04:27:40.049Z,60.47
2022-12-05T04:30:09.541Z,59.23
2022-12-05T04:32:39.627Z,56.80
2022-12-05T04:35:10.762Z,60.90
2022-12-05T04:37:42.024Z,54.83
2022-12-05T04:40:13.172Z,55.30
2022-12-05T04:42:42.622Z,56.70
2022-12-05T04:45:12.739Z,53.63
2022-12-05T04:47:42.591Z,52.70
2022-12-05T04:50:11.940Z,52.73
2022-12-05T04:52:41.888Z,52.27
2022-12-05T04:55:10.674Z,55.17
2022-12-05T04:57:41.851Z,53.03
2022-12-05T05:00:10.184Z,54.30
2022-12-05T05:02:41.724Z,51.90
2022-12-05T05:05:14.138Z,50.53
2022-12-05T05:07:47.670Z,52.20
2022-12-05T05:10:17.334Z,50.40
2022-12-05T05:12:45.002Z,50.90
2022-12-05T05:15:13.383Z,48.77
2022-12-05T05:17:41.442Z,50.00
2022-12-05T05:20:24.673Z,49.17
2022-12-05T05:22:54.195Z,49.13
2022-12-05T05:25:22.228Z,48.47
2022-12-05T05:27:51.192Z,47.63
2022-12-05T05:30:19.405Z,44.90
2022-12-05T05:32:47.473Z,47.07
2022-12-05T05:35:15.285Z,44.30
2022-12-05T05:37:43.102Z,43.13
2022-12-05T05:40:14.652Z,43.20
2022-12-05T05:42:45.832Z,43.20
2022-12-05T05:45:14.399Z,41.00
2022-12-05T05:47:42.391Z,44.20
2022-12-05T05:50:15.001Z,42.77
2022-12-05T05:52:45.613Z,42.27
2022-12-05T05:55:14.949Z,41.63
2022-12-05T05:57:42.605Z,43.00
2022-12-05T06:00:11.322Z,41.83
2022-12-05T06:02:39.363Z,39.43
2022-12-05T06:05:07.608Z,42.17
2022-12-05T06:07:35.476Z,42.20
2022-12-05T06:10:03.334Z,44.20
2022-12-05T06:12:32.289Z,41.23
2022-12-05T06:15:00.194Z,39.83
2022-12-05T06:17:28.362Z,40.33
2022-12-05T06:19:56.213Z,40.33
2022-12-05T06:22:24.261Z,41.73
2022-12-05T06:24:52.072Z,42.70
2022-12-05T06:27:19.992Z,40.00
2022-12-05T06:29:49.065Z,40.90
2022-12-05T06:32:17.129Z,38.60
2022-12-05T06:34:44.729Z,40.63
2022-12-05T06:37:13.196Z,39.57
2022-12-05T06:39:41.065Z,41.50
2022-12-05T06:42:08.691Z,42.77
2022-12-05T06:44:36.670Z,42.80
2022-12-05T06:47:07.477Z,43.03
2022-12-05T06:49:38.128Z,41.40
2022-12-05T06:52:06.254Z,42.00
2022-12-05T06:54:34.142Z,43.93
2022-12-05T06:57:01.791Z,44.10
2022-12-05T06:59:29.380Z,43.77
2022-12-05T07:01:56.247Z,44.43
2022-12-05T07:04:25.374Z,42.77
2022-12-05T07:06:53.795Z,42.20
2022-12-05T07:09:22.872Z,39.87
2022-12-05T07:11:51.012Z,41.47
2022-12-05T07:14:45.864Z,44.47
2022-12-05T07:17:06.667Z,40.07
2022-12-05T07:19:35.761Z,43.20
2022-12-05T07:22:03.482Z,42.30
2022-12-05T07:24:31.435Z,41.23
2022-12-05T07:26:59.738Z,43.10
2022-12-05T07:29:27.378Z,41.50
2022-12-05T07:31:55.590Z,41.70
2022-12-05T07:34:23.348Z,38.93
2022-12-05T07:36:52.421Z,40.07
2022-12-05T07:39:20.063Z,40.90
2022-12-05T07:41:47.821Z,42.07
2022-12-05T07:44:17.896Z,41.30
2022-12-05T07:46:46.395Z,39.87
2022-12-05T07:49:15.739Z,40.30
2022-12-05T07:51:43.834Z,39.33
2022-12-05T07:54:13.736Z,38.07
2022-12-05T07:56:46.301Z,40.17
2022-12-05T07:59:15.723Z,38.10
2022-12-05T08:01:49.363Z,39.77
2022-12-05T08:04:17.501Z,38.67
2022-12-05T08:06:45.104Z,36.57
2022-12-05T08:09:14.444Z,39.90
2022-12-05T08:11:42.500Z,39.03
2022-12-05T08:14:11.138Z,38.93
2022-12-05T08:16:39.059Z,40.73
2022-12-05T08:19:08.223Z,39.27
2022-12-05T08:21:36.265Z,39.90
2022-12-05T08:24:05.195Z,40.93
2022-12-05T08:26:35.178Z,40.87
2022-12-05T08:29:04.237Z,40.17
2022-12-05T08:31:32.990Z,37.23
2022-12-05T08:34:01.530Z,39.90
2022-12-05T08:36:29.789Z,40.53
2022-12-05T08:38:58.216Z,36.50
2022-12-05T08:41:28.764Z,35.67
2022-12-05T08:43:58.237Z,38.30
2022-12-05T08:46:26.027Z,36.67
2022-12-05T08:48:54.284Z,37.73
2022-12-05T08:51:22.117Z,40.40
2022-12-05T08:53:49.865Z,39.73
2022-12-05T08:56:23.379Z,40.27
2022-12-05T08:58:55.653Z,38.30
2022-12-05T09:01:30.573Z,37.03
2022-12-05T09:04:01.513Z,35.47
2022-12-05T09:06:30.549Z,36.27
2022-12-05T09:08:59.197Z,37.70
2022-12-05T09:11:28.444Z,36.50
2022-12-05T09:13:59.212Z,35.17
2022-12-05T09:16:36.485Z,37.87
2022-12-05T09:19:12.005Z,38.47
2022-12-05T09:21:40.068Z,37.00
2022-12-05T09:24:08.071Z,36.17
2022-12-05T09:26:36.123Z,34.97
2022-12-05T09:29:04.191Z,34.73
2022-12-05T09:31:34.778Z,35.40
2022-12-05T09:34:03.744Z,34.00
2022-12-05T09:36:32.116Z,36.30
2022-12-05T09:39:01.398Z,34.07
2022-12-05T09:42:03.270Z,34.70
2022-12-05T09:44:37.370Z,31.07
2022-12-05T09:47:12.981Z,32.30
2022-12-05T09:49:45.087Z,33.53
2022-12-05T09:52:22.941Z,33.87
2022-12-05T09:54:51.951Z,32.27
2022-12-05T09:57:21.593Z,34.10
2022-12-05T09:59:49.596Z,33.97
2022-12-05T10:02:23.040Z,33.63
2022-12-05T10:05:00.401Z,34.30
2022-12-05T10:07:32.262Z,33.50
2022-12-05T10:10:21.054Z,32.70
2022-12-05T10:12:54.026Z,35.53
2022-12-05T10:15:27.378Z,32.60
2022-12-05T10:17:59.362Z,34.50
2022-12-05T10:20:29.814Z,34.07
2022-12-05T10:22:59.151Z,34.50
2022-12-05T10:25:28.207Z,35.77
2022-12-05T10:27:57.532Z,32.10
2022-12-05T10:30:26.137Z,32.93
2022-12-05T10:32:54.737Z,32.80
2022-12-05T10:35:24.864Z,33.33
2022-12-05T10:37:53.593Z,37.07
2022-12-05T10:40:21.629Z,33.77
2022-12-05T10:42:50.140Z,31.70
2022-12-05T10:45:19.829Z,33.93
2022-12-05T10:47:48.433Z,34.77
2022-12-05T10:50:23.122Z,35.90
2022-12-05T10:52:52.973Z,34.23
2022-12-05T10:55:20.741Z,34.33
2022-12-05T10:57:50.971Z,33.40
2022-12-05T11:00:21.275Z,32.93
2022-12-05T11:02:50.436Z,35.03
2022-12-05T11:05:27.774Z,34.40
2022-12-05T11:07:57.600Z,33.40
2022-12-05T11:10:27.612Z,33.80
2022-12-05T11:12:57.167Z,36.10
2022-12-05T11:15:26.038Z,35.53
2022-12-05T11:17:54.671Z,36.10
2022-12-05T11:20:37.102Z,35.73
2022-12-05T11:23:18.569Z,35.50
2022-12-05T11:25:46.706Z,35.70
2022-12-05T11:28:25.157Z,35.07
2022-12-05T11:30:57.757Z,36.80
2022-12-05T11:33:27.513Z,37.67
2022-12-05T11:35:57.326Z,35.27
2022-12-05T11:38:28.424Z,36.87
2022-12-05T11:41:00.215Z,38.40
2022-12-05T11:43:39.225Z,35.80
2022-12-05T11:46:11.752Z,39.83
2022-12-05T11:48:47.725Z,37.50
2022-12-05T11:51:27.426Z,37.07
2022-12-05T11:54:02.683Z,35.83
2022-12-05T11:56:36.610Z,36.80
2022-12-05T11:59:14.524Z,35.80
2022-12-05T12:01:47.438Z,38.13
2022-12-05T12:04:38.295Z,39.50
2022-12-05T12:07:17.552Z,39.00
2022-12-05T12:09:51.450Z,38.00
2022-12-05T12:12:25.755Z,37.07
2022-12-05T12:14:59.353Z,41.00
2022-12-05T12:17:30.295Z,37.17
2022-12-05T12:20:03.807Z,39.10
2022-12-05T12:22:39.113Z,40.10
2022-12-05T12:25:21.412Z,39.37
2022-12-05T12:28:05.303Z,38.57
2022-12-05T12:30:41.651Z,37.23
2022-12-05T12:33:12.873Z,40.30
2022-12-05T12:35:43.035Z,39.40
2022-12-05T12:38:34.559Z,41.50
2022-12-05T12:41:08.634Z,47.10
2022-12-05T12:43:59.130Z,45.53
2022-12-05T12:46:34.403Z,41.17
2022-12-05T12:49:09.680Z,41.20
2022-12-05T12:51:42.590Z,43.00
2022-12-05T12:54:29.219Z,41.80
2022-12-05T12:57:14.504Z,44.13
2022-12-05T12:59:51.647Z,42.60
2022-12-05T13:02:23.048Z,44.10
2022-12-05T13:04:53.682Z,43.33
2022-12-05T13:07:25.022Z,42.93
2022-12-05T13:09:55.362Z,43.80
2022-12-05T13:12:26.339Z,43.47
2022-12-05T13:14:56.585Z,46.57
2022-12-05T13:17:25.170Z,44.80
2022-12-05T13:19:54.773Z,45.97
2022-12-05T13:22:24.900Z,46.17
2022-12-05T13:24:52.529Z,47.30
2022-12-05T13:27:21.530Z,54.93
2022-12-05T13:29:52.211Z,47.20
2022-12-05T13:32:27.843Z,47.33
2022-12-05T13:34:57.776Z,49.47
2022-12-05T13:37:44.529Z,49.00
2022-12-05T13:40:56.950Z,49.20
2022-12-05T13:43:26.600Z,51.60
2022-12-05T13:46:08.007Z,54.30
2022-12-05T13:48:37.743Z,51.40
2022-12-05T13:51:07.686Z,48.87
2022-12-05T13:53:39.741Z,51.33
2022-12-05T13:56:08.922Z,52.07
2022-12-05T13:58:44.061Z,52.80
2022-12-05T14:01:38.016Z,50.10
2022-12-05T14:04:23.410Z,53.07
2022-12-05T14:06:58.465Z,50.80
2022-12-05T14:09:30.066Z,53.57
2022-12-05T14:12:16.369Z,51.83
2022-12-05T14:15:00.543Z,52.17
2022-12-05T14:17:30.326Z,48.93
2022-12-05T14:20:10.644Z,51.77
2022-12-05T14:22:57.344Z,54.27
2022-12-05T14:25:35.496Z,53.70
2022-12-05T14:28:12.134Z,51.47
2022-12-05T14:30:46.342Z,55.50
2022-12-05T14:33:15.087Z,55.67
2022-12-05T14:35:46.264Z,54.63
2022-12-05T14:38:21.237Z,56.53
2022-12-05T14:40:49.712Z,56.67
2022-12-05T14:43:20.655Z,58.03
2022-12-05T14:45:55.025Z,55.70
2022-12-05T14:48:27.567Z,54.30
2022-12-05T14:50:57.484Z,53.87
2022-12-05T14:53:30.190Z,56.63
2022-12-05T14:56:03.289Z,55.67
2022-12-05T14:58:37.912Z,58.23
2022-12-05T15:01:09.499Z,60.20
2022-12-05T15:03:39.093Z,56.30
2022-12-05T15:06:16.031Z,62.63
2022-12-05T15:08:45.784Z,55.47
2022-12-05T15:11:28.011Z,57.33
2022-12-05T15:13:57.717Z,57.40
2022-12-05T15:16:29.716Z,58.90
2022-12-05T15:18:59.690Z,58.50
2022-12-05T15:21:32.118Z,61.93
2022-12-05T15:24:01.022Z,59.10
2022-12-05T15:26:46.275Z,58.77
2022-12-05T15:29:17.010Z,63.03
2022-12-05T15:31:46.267Z,65.50
2022-12-05T15:34:15.846Z,63.03
2022-12-05T15:36:46.882Z,63.43
2022-12-05T15:39:19.657Z,60.10
2022-12-05T15:41:47.473Z,61.17
2022-12-05T15:44:15.149Z,61.80
2022-12-05T15:46:43.138Z,60.10
2022-12-05T15:49:18.089Z,61.43
2022-12-05T15:51:47.982Z,67.03
2022-12-05T15:54:18.545Z,65.17
2022-12-05T15:56:50.204Z,62.77
2022-12-05T15:59:20.574Z,64.20
2022-12-05T16:01:51.710Z,63.53
2022-12-05T16:04:29.198Z,62.30
2022-12-05T16:07:01.476Z,64.57
2022-12-05T16:09:32.324Z,62.57
2022-12-05T16:12:01.388Z,69.60
2022-12-05T16:14:58.209Z,61.43
2022-12-05T16:17:20.648Z,67.00
2022-12-05T16:19:48.574Z,62.53
2022-12-05T16:22:25.596Z,62.83
2022-12-05T16:24:57.492Z,62.90
2022-12-05T16:27:27.597Z,61.60
2022-12-05T16:30:08.943Z,66.33
2022-12-05T16:32:37.159Z,68.33
2022-12-05T16:35:05.165Z,68.50
2022-12-05T16:37:34.367Z,61.90
2022-12-05T16:40:02.054Z,66.30
2022-12-05T16:42:30.498Z,65.30
2022-12-05T16:45:02.201Z,64.00
2022-12-05T16:47:54.742Z,69.20
2022-12-05T16:50:30.191Z,69.00
2022-12-05T16:53:15.357Z,68.40
2022-12-05T16:55:44.292Z,70.40
2022-12-05T16:58:16.862Z,62.47
2022-12-05T17:00:44.933Z,73.33
2022-12-05T17:03:33.551Z,68.40
2022-12-05T17:06:01.376Z,75.43
2022-12-05T17:08:30.397Z,64.53
2022-12-05T17:10:58.513Z,63.93
2022-12-05T17:13:26.487Z,65.40
2022-12-05T17:15:54.405Z,71.30
2022-12-05T17:18:26.578Z,71.97
2022-12-05T17:20:58.231Z,64.57
2022-12-05T17:23:25.880Z,63.00
2022-12-05T17:25:55.674Z,61.23
2022-12-05T17:28:24.228Z,60.13
2022-12-05T17:30:52.099Z,66.37
2022-12-05T17:33:20.576Z,61.77
2022-12-05T17:35:50.259Z,64.27
2022-12-05T17:38:17.873Z,63.20
2022-12-05T17:40:45.803Z,61.80
2022-12-05T17:43:17.618Z,59.47
2022-12-05T17:45:49.468Z,57.33
2022-12-05T17:48:17.427Z,60.97
2022-12-05T17:50:46.916Z,65.10
2022-12-05T17:53:15.254Z,61.60
2022-12-05T17:55:43.313Z,59.10
2022-12-05T17:58:12.371Z,55.83
2022-12-05T18:00:41.788Z,59.00
2022-12-05T18:03:12.292Z,116.60
2022-12-05T18:06:06.207Z,66.83
2022-12-05T18:08:34.395Z,67.60
2022-12-05T18:11:02.111Z,56.00
2022-12-05T18:13:29.917Z,57.57
2022-12-05T18:15:59.957Z,56.90
2022-12-05T18:18:29.331Z,57.63
2022-12-05T18:21:04.180Z,57.67
2022-12-05T18:23:31.892Z,59.97
2022-12-05T18:26:00.292Z,55.47
2022-12-05T18:28:28.488Z,55.37
2022-12-05T18:31:10.739Z,60.80
2022-12-05T18:33:39.172Z,58.87
2022-12-05T18:36:08.711Z,60.00
2022-12-05T18:38:37.407Z,52.93
2022-12-05T18:41:05.743Z,54.57
2022-12-05T18:43:33.861Z,55.43
2022-12-05T18:46:02.405Z,54.73
2022-12-05T18:48:42.557Z,52.30
2022-12-05T18:51:14.255Z,56.57
2022-12-05T18:53:42.642Z,55.80
2022-12-05T18:56:22.029Z,54.17
2022-12-05T18:58:53.822Z,55.60
2022-12-05T19:01:22.010Z,56.90
2022-12-05T19:03:51.535Z,59.23
2022-12-05T19:06:20.630Z,58.97
2022-12-05T19:08:48.492Z,55.60
2022-12-05T19:11:17.145Z,53.17
2022-12-05T19:13:45.028Z,51.67
2022-12-05T19:16:16.779Z,53.57
2022-12-05T19:18:45.032Z,51.80
2022-12-05T19:21:14.015Z,52.77
2022-12-05T19:23:41.750Z,51.13
2022-12-05T19:26:10.377Z,52.17
2022-12-05T19:28:39.082Z,52.20
2022-12-05T19:31:08.687Z,51.73
2022-12-05T19:33:37.232Z,50.67
2022-12-05T19:36:06.973Z,48.83
2022-12-05T19:38:38.959Z,49.40
2022-12-05T19:41:08.280Z,53.77
2022-12-05T19:43:36.531Z,54.60
2022-12-05T19:46:04.927Z,54.73
2022-12-05T19:48:33.381Z,56.10
2022-12-05T19:51:01.883Z,59.70
2022-12-05T19:53:30.165Z,56.57
2022-12-05T19:56:02.584Z,58.53
2022-12-05T19:58:32.324Z,55.53
2022-12-05T20:01:06.972Z,51.97
2022-12-05T20:03:35.144Z,55.23
2022-12-05T20:06:02.730Z,52.80
2022-12-05T20:08:30.639Z,53.90
2022-12-05T20:10:59.041Z,56.60
2022-12-05T20:16:16.901Z,57.60
2022-12-05T20:18:44.634Z,54.33
2022-12-05T20:21:14.006Z,52.53
2022-12-05T20:23:41.808Z,53.60
2022-12-05T20:26:10.686Z,54.27
2022-12-05T20:28:40.084Z,50.67
2022-12-05T20:31:08.307Z,46.77
2022-12-05T20:33:36.338Z,48.17
2022-12-05T20:36:06.228Z,44.07
2022-12-05T20:38:35.853Z,47.20
2022-12-05T20:41:04.431Z,42.93
2022-12-05T20:43:32.599Z,43.97
2022-12-05T20:46:07.776Z,44.83
2022-12-05T20:48:35.730Z,43.43
2022-12-05T20:51:08.085Z,40.90
2022-12-05T20:53:36.539Z,41.67
2022-12-05T20:56:05.181Z,39.87
2022-12-05T20:58:33.522Z,40.77
2022-12-05T21:01:01.650Z,37.73
2022-12-05T21:03:31.205Z,39.03
2022-12-05T21:06:00.308Z,41.00
2022-12-05T21:08:27.974Z,37.53
2022-12-05T21:10:55.815Z,39.97
2022-12-05T21:13:23.813Z,41.00
2022-12-05T21:15:51.621Z,39.10
2022-12-05T21:18:19.273Z,40.70
2022-12-05T21:20:59.638Z,38.50
2022-12-05T21:23:27.510Z,37.37
2022-12-05T21:25:55.179Z,35.70
2022-12-05T21:28:23.193Z,33.80
2022-12-05T21:30:50.789Z,37.20
2022-12-05T21:33:18.871Z,36.03
2022-12-05T21:35:54.043Z,33.13
2022-12-05T21:38:23.156Z,33.33
2022-12-05T21:40:50.775Z,33.97
2022-12-05T21:43:18.721Z,33.30
2022-12-05T21:45:51.600Z,33.93
2022-12-05T21:48:20.942Z,34.23
2022-12-05T21:50:48.828Z,32.30
2022-12-05T21:53:16.963Z,34.37
2022-12-05T21:55:45.919Z,33.47
2022-12-05T21:58:13.941Z,34.00
2022-12-05T22:00:41.708Z,32.27
2022-12-05T22:03:14.704Z,33.37
2022-12-05T22:05:43.456Z,32.70
2022-12-05T22:08:12.028Z,31.87
2022-12-05T22:10:39.948Z,35.80
2022-12-05T22:13:08.885Z,35.40
2022-12-05T22:15:36.654Z,39.50
2022-12-05T22:18:04.694Z,33.57
2022-12-05T22:20:32.360Z,35.80
2022-12-05T22:23:00.064Z,34.67
2022-12-05T22:25:27.901Z,34.37
2022-12-05T22:27:56.317Z,33.03
2022-12-05T22:30:25.370Z,37.47
2022-12-05T22:32:54.071Z,36.07
2022-12-05T22:35:21.902Z,36.00
2022-12-05T22:37:49.616Z,38.13
2022-12-05T22:40:17.385Z,34.50
2022-12-05T22:42:45.103Z,39.00
2022-12-05T22:45:13.235Z,39.60
2022-12-05T22:47:42.387Z,39.57
2022-12-05T22:50:11.025Z,35.93
2022-12-05T22:52:38.621Z,39.17
2022-12-05T22:55:07.067Z,39.00
2022-12-05T22:57:34.694Z,36.00
2022-12-05T23:00:02.437Z,38.70
2022-12-05T23:02:30.280Z,36.10
2022-12-05T23:04:59.384Z,36.53
2022-12-05T23:07:27.065Z,37.27
2022-12-05T23:09:54.955Z,39.03
2022-12-05T23:12:22.591Z,36.13
2022-12-05T23:14:51.002Z,36.00
2022-12-05T23:17:18.796Z,33.73
2022-12-05T23:19:46.472Z,35.40
2022-12-05T23:22:15.482Z,35.70
2022-12-05T23:24:43.526Z,35.70
2022-12-05T23:27:11.177Z,33.97
2022-12-05T23:29:38.923Z,34.83
2022-12-05T23:32:06.693Z,34.20
2022-12-05T23:34:36.960Z,31.83
2022-12-05T23:37:04.922Z,34.13
2022-12-05T23:39:34.113Z,32.63
2022-12-05T23:42:01.734Z,30.13
2022-12-05T23:44:29.495Z,30.87
2022-12-05T23:46:57.188Z,34.07
2022-12-05T23:49:24.925Z,27.03
2022-12-05T23:51:53.129Z,31.60
2022-12-05T23:54:20.821Z,32.67
2022-12-05T23:56:49.805Z,30.03
2022-12-05T23:59:17.763Z,28.63
